Time;durP1;ratioP1;P1;durP2;ratioP2;P2;SDS_P1;SDS_P2;PMS_P1;PMS_P2;Temp;Humidity;BMP_temperature;BMP_pressure;BME280_temperature;BME280_humidity;BME280_pressure;Samples;Min_cycle;Max_cycle;Signal;HPM_P1;HPM_P2
2022/03/29 00:00:08;;;;;;;18.87;11.00;;;;;;;11.57;44.18;99619.31;4459307;32;33732;-78
2022/03/29 00:02:40;;;;;;;19.50;11.35;;;;;;;11.50;44.19;99619.34;4472386;32;33611;-78
2022/03/29 00:05:08;;;;;;;21.83;10.38;;;;;;;11.37;44.64;99606.47;4459321;32;34342;-78
2022/03/29 00:07:36;;;;;;;23.60;12.63;;;;;;;11.34;44.73;99608.81;4486197;32;33927;-78
2022/03/29 00:10:06;;;;;;;17.48;10.90;;;;;;;11.27;44.75;99611.56;4471961;32;33707;-78
2022/03/29 00:12:35;;;;;;;17.65;10.45;;;;;;;11.31;44.75;99612.84;4472331;32;33967;-79
2022/03/29 00:15:07;;;;;;;18.48;10.52;;;;;;;11.35;44.75;99611.34;4446321;32;32924;-78
2022/03/29 00:17:35;;;;;;;18.40;9.95;;;;;;;11.20;45.08;99600.59;4459056;32;33367;-78
2022/03/29 00:20:03;;;;;;;16.30;10.40;;;;;;;11.22;44.90;99598.47;4472056;32;34484;-78
2022/03/29 00:22:31;;;;;;;19.02;9.52;;;;;;;11.18;45.11;99596.37;4472046;32;33728;-78
2022/03/29 00:25:00;;;;;;;17.80;9.40;;;;;;;11.34;44.68;99589.56;4459368;32;34392;-78
2022/03/29 00:27:28;;;;;;;16.87;10.65;;;;;;;11.17;45.08;99589.19;4459326;32;33273;-78
2022/03/29 00:29:58;;;;;;;16.92;10.38;;;;;;;11.04;45.59;99584.63;4458837;32;33161;-78
2022/03/29 00:32:30;;;;;;;20.02;10.35;;;;;;;11.08;45.35;99568.53;4446341;32;33348;-78
2022/03/29 00:34:58;;;;;;;21.27;9.77;;;;;;;10.98;45.45;99584.63;4445895;32;33392;-78
2022/03/29 00:37:26;;;;;;;16.52;9.77;;;;;;;11.11;45.31;99568.09;4459114;32;34168;-79
2022/03/29 00:39:53;;;;;;;19.23;10.18;;;;;;;11.09;45.37;99567.47;4471829;32;33655;-78
2022/03/29 00:42:21;;;;;;;20.65;10.77;;;;;;;11.09;45.26;99573.78;4458663;32;32800;-78
2022/03/29 00:44:49;;;;;;;21.15;10.30;;;;;;;10.99;45.60;99569.84;4458997;32;35327;-78
2022/03/29 00:47:16;;;;;;;16.58;9.90;;;;;;;10.92;45.77;99555.28;4446131;32;33559;-78
2022/03/29 00:49:43;;;;;;;18.55;9.63;;;;;;;11.07;45.49;99561.34;4471855;32;33530;-78
2022/03/29 00:52:14;;;;;;;17.67;9.40;;;;;;;10.90;45.89;99566.47;4458918;32;33771;-78
2022/03/29 00:54:42;;;;;;;16.65;9.40;;;;;;;10.75;46.06;99558.47;4471873;32;35241;-78
2022/03/29 00:57:12;;;;;;;18.77;10.52;;;;;;;10.79;45.99;99554.25;4471887;32;33935;-78
2022/03/29 00:59:42;;;;;;;19.00;10.02;;;;;;;10.88;45.95;99554.84;4458914;32;33661;-78
2022/03/29 01:02:09;;;;;;;16.87;9.90;;;;;;;10.86;45.96;99548.75;4458933;32;33223;-78
2022/03/29 01:04:38;;;;;;;17.52;10.10;;;;;;;10.91;45.78;99545.34;4471779;32;34226;-78
2022/03/29 01:07:07;;;;;;;18.70;9.75;;;;;;;10.87;45.95;99544.94;4471994;32;34272;-78
2022/03/29 01:09:34;;;;;;;22.70;10.25;;;;;;;10.75;46.20;99539.25;4458661;32;32190;-78
2022/03/29 01:12:02;;;;;;;19.90;10.07;;;;;;;10.75;46.19;99525.53;4458619;32;32313;-78
2022/03/29 01:14:32;;;;;;;15.15;9.30;;;;;;;10.66;46.67;99534.19;4471254;32;35342;-78
2022/03/29 01:19:47;;;;;;;18.60;9.50;;;;;;;10.78;46.32;99533.34;4459557;32;32145;-78
2022/03/29 01:22:15;;;;;;;16.12;9.15;;;;;;;10.72;46.55;99536.09;4458680;32;32186;-78
2022/03/29 01:24:43;;;;;;;16.45;9.95;;;;;;;10.71;46.62;99529.75;4471210;32;35347;-78
2022/03/29 01:27:31;;;;;;;18.33;9.93;;;;;;;10.70;46.65;99532.72;4460506;32;32606;-78
2022/03/29 01:29:59;;;;;;;15.52;9.40;;;;;;;10.72;46.66;99520.47;4471640;32;33371;-78
2022/03/29 01:32:28;;;;;;;17.58;9.30;;;;;;;10.61;46.83;99526.59;4471749;32;33665;-78
2022/03/29 01:35:00;;;;;;;16.00;9.52;;;;;;;10.66;46.73;99526.81;4458663;32;35222;-78
2022/03/29 01:37:27;;;;;;;16.65;9.32;;;;;;;10.56;47.03;99523.66;4471405;32;34136;-78
2022/03/29 01:39:55;;;;;;;18.48;9.43;;;;;;;10.60;47.09;99524.91;4458208;32;32078;-79
2022/03/29 01:42:22;;;;;;;16.50;9.32;;;;;;;10.59;46.95;99528.72;4471389;32;34658;-78
2022/03/29 01:44:50;;;;;;;16.35;9.05;;;;;;;10.57;46.79;99506.97;4471105;32;34503;-78
2022/03/29 01:47:19;;;;;;;17.65;9.48;;;;;;;10.50;47.25;99502.56;4471612;32;33950;-78
2022/03/29 01:49:47;;;;;;;18.62;9.32;;;;;;;10.41;47.49;99493.69;4458569;32;34307;-78
2022/03/29 01:52:15;;;;;;;14.52;8.68;;;;;;;10.45;47.49;99483.13;4471460;32;33584;-78
2022/03/29 01:54:43;;;;;;;17.75;9.27;;;;;;;10.50;47.26;99486.94;4470953;32;33214;-78
2022/03/29 01:57:11;;;;;;;18.15;8.85;;;;;;;10.42;47.69;99487.16;4458308;32;33990;-78
2022/03/29 02:02:43;;;;;;;16.50;9.32;;;;;;;10.36;47.60;99482.53;4465657;32;33390;-78
2022/03/29 02:05:11;;;;;;;16.65;8.88;;;;;;;10.40;47.49;99478.28;4445534;32;33183;-79
2022/03/29 02:07:39;;;;;;;16.12;9.07;;;;;;;10.48;47.36;99479.97;4471328;32;34770;-78
2022/03/29 02:10:07;;;;;;;44.53;27.40;;;;;;;10.35;47.68;99474.53;4471207;32;33352;-78
2022/03/29 02:12:35;;;;;;;34.75;21.75;;;;;;;10.40;47.54;99461.84;4470966;32;33753;-78
2022/03/29 02:15:06;;;;;;;29.02;18.80;;;;;;;10.37;47.66;99459.53;4471018;32;34780;-78
2022/03/29 02:17:33;;;;;;;21.33;14.07;;;;;;;10.42;47.48;99462.47;4445150;32;32657;-78
2022/03/29 02:20:02;;;;;;;20.42;12.77;;;;;;;10.33;47.74;99458.28;4470794;32;33482;-78
2022/03/29 02:22:32;;;;;;;15.95;10.07;;;;;;;10.33;47.77;99465.66;4484862;32;33611;-78
2022/03/29 02:25:00;;;;;;;19.48;9.77;;;;;;;10.15;48.38;99456.16;4485004;32;34489;-78
2022/03/29 02:27:28;;;;;;;19.92;9.45;;;;;;;10.20;48.08;99455.56;4445091;32;32371;-78
2022/03/29 02:29:55;;;;;;;16.58;9.82;;;;;;;10.12;48.21;99453.00;4457972;32;33658;-78
2022/03/29 02:32:23;;;;;;;18.73;9.32;;;;;;;10.16;48.24;99454.25;4472624;32;34855;-78
2022/03/29 02:34:51;;;;;;;17.05;9.55;;;;;;;10.21;48.09;99447.13;4472491;32;32917;-78
2022/03/29 02:37:18;;;;;;;14.27;8.23;;;;;;;10.34;47.67;99450.91;4472647;32;33819;-78
2022/03/29 02:39:46;;;;;;;20.12;11.10;;;;;;;10.21;47.83;99447.13;4459908;32;34317;-78
2022/03/29 02:42:13;;;;;;;21.08;10.60;;;;;;;10.21;47.83;99452.59;4472546;32;32382;-78
2022/03/29 02:44:41;;;;;;;22.02;12.25;;;;;;;10.15;48.01;99450.66;4446858;32;32951;-77
2022/03/29 02:47:09;;;;;;;21.42;12.43;;;;;;;10.14;47.96;99450.88;4459665;32;32517;-78
2022/03/29 02:49:37;;;;;;;18.92;11.60;;;;;;;10.01;48.21;99445.41;4459964;32;33451;-78
2022/03/29 02:52:05;;;;;;;19.77;10.73;;;;;;;10.06;48.16;99443.72;4472885;32;33716;-78
2022/03/29 02:54:32;;;;;;;23.60;13.05;;;;;;;9.98;48.33;99437.59;4459638;32;33064;-78
2022/03/29 02:57:00;;;;;;;18.30;12.75;;;;;;;10.15;47.80;99431.47;4472627;32;33917;-78
2022/03/29 02:59:28;;;;;;;19.77;11.32;;;;;;;10.12;48.01;99439.28;4459575;32;33811;-78
2022/03/29 03:01:56;;;;;;;19.33;11.07;;;;;;;10.07;48.13;99434.44;4459935;32;34581;-78
2022/03/29 03:04:24;;;;;;;26.27;12.75;;;;;;;10.10;48.18;99433.16;4459715;32;34344;-78
2022/03/29 03:06:52;;;;;;;64.40;30.15;;;;;;;9.99;48.54;99431.91;4486486;32;34290;-79
2022/03/29 03:09:19;;;;;;;119.22;49.13;;;;;;;9.91;48.60;99429.37;4459717;32;33503;-78
2022/03/29 03:11:49;;;;;;;43.28;21.65;;;;;;;9.84;48.95;99439.50;4469205;32;103352;-78
2022/03/29 03:14:17;;;;;;;47.20;23.17;;;;;;;9.86;49.02;99431.91;4472218;32;33198;-78
2022/03/29 03:16:44;;;;;;;48.90;27.25;;;;;;;9.98;48.92;99435.69;4472253;32;34059;-78
2022/03/29 03:19:34;;;;;;;56.40;29.27;;;;;;;9.87;49.02;99431.69;4461621;32;33448;-78
2022/03/29 03:22:04;;;;;;;33.08;17.75;;;;;;;9.79;49.22;99431.06;4459773;32;33747;-78
2022/03/29 03:24:34;;;;;;;26.12;13.80;;;;;;;9.80;49.32;99424.53;4460052;32;34486;-78
2022/03/29 03:27:03;;;;;;;24.15;13.02;;;;;;;9.77;49.40;99424.94;4459583;32;34897;-78
2022/03/29 03:29:30;;;;;;;19.70;11.50;;;;;;;9.72;49.49;99413.78;4472609;32;34312;-78
2022/03/29 03:31:58;;;;;;;19.10;11.75;;;;;;;9.81;49.39;99423.47;4472212;32;33251;-78
2022/03/29 03:34:29;;;;;;;23.85;12.18;;;;;;;9.78;49.41;99421.16;4472442;32;34673;-78
2022/03/29 03:36:58;;;;;;;24.95;12.93;;;;;;;9.84;49.14;99417.56;4472284;32;34014;-79
2022/03/29 03:39:26;;;;;;;30.48;15.18;;;;;;;9.86;49.03;99410.81;4486344;32;33465;-78
2022/03/29 03:41:54;;;;;;;37.45;16.77;;;;;;;9.78;49.17;99411.03;4471647;32;34262;-79
2022/03/29 03:44:22;;;;;;;41.33;20.40;;;;;;;9.84;49.11;99406.59;4459464;32;34542;-78
2022/03/29 03:46:50;;;;;;;39.55;19.90;;;;;;;9.75;49.28;99407.91;4459135;32;33430;-78
2022/03/29 03:49:20;;;;;;;36.17;17.50;;;;;;;9.80;49.09;99405.34;4472310;32;34275;-78
2022/03/29 03:51:48;;;;;;;37.83;18.33;;;;;;;9.69;49.42;99403.25;4472421;32;33616;-78
2022/03/29 03:54:18;;;;;;;26.45;13.27;;;;;;;9.72;49.54;99405.56;4459093;32;32921;-78
2022/03/29 03:56:48;;;;;;;27.55;14.77;;;;;;;9.63;49.67;99412.31;4472426;32;34622;-77
2022/03/29 03:59:16;;;;;;;22.90;12.07;;;;;;;9.73;49.48;99413.59;4459341;32;34494;-77
2022/03/29 04:01:44;;;;;;;23.15;12.30;;;;;;;9.65;49.79;99405.56;4486157;32;34538;-75
2022/03/29 04:04:12;;;;;;;23.98;11.52;;;;;;;9.58;49.88;99402.81;4486146;32;34377;-74
2022/03/29 04:06:42;;;;;;;24.00;11.75;;;;;;;9.72;49.77;99405.56;4470966;32;33669;-76
2022/03/29 04:09:09;;;;;;;20.23;11.30;;;;;;;10.41;56.34;99405.91;4471459;32;33643;-76
2022/03/29 04:11:38;;;;;;;20.23;10.35;;;;;;;10.49;50.84;99399.34;4472065;32;34521;-76
2022/03/29 04:14:08;;;;;;;17.67;10.15;;;;;;;10.31;49.16;99391.81;4472132;32;34436;-76
2022/03/29 04:16:38;;;;;;;21.42;11.02;;;;;;;10.27;48.83;99396.06;4458506;32;34738;-76
2022/03/29 04:19:08;;;;;;;18.23;9.68;;;;;;;10.19;48.81;99380.66;4471844;32;32062;-76
2022/03/29 04:21:36;;;;;;;18.02;10.32;;;;;;;10.07;49.51;99395.19;4485719;32;33827;-76
2022/03/29 04:24:04;;;;;;;15.13;9.55;;;;;;;10.21;49.13;99399.66;4486054;32;34375;-76
2022/03/29 04:26:31;;;;;;;21.75;9.25;;;;;;;10.13;49.15;99389.72;4459166;32;33892;-74
2022/03/29 04:28:59;;;;;;;17.92;9.35;;;;;;;10.00;49.55;99397.94;4459299;32;34336;-74
2022/03/29 04:31:26;;;;;;;22.62;10.30;;;;;;;10.04;49.45;99391.00;4472014;32;33995;-75
2022/03/29 04:33:54;;;;;;;16.90;10.15;;;;;;;10.00;49.57;99391.63;4471963;32;35336;-74
2022/03/29 04:36:23;;;;;;;15.73;9.43;;;;;;;10.00;49.70;99389.72;4458155;32;32436;-75
2022/03/29 04:38:51;;;;;;;16.40;9.63;;;;;;;10.01;49.81;99388.66;4485964;32;33503;-75
2022/03/29 04:41:19;;;;;;;19.87;9.63;;;;;;;10.04;49.83;99388.25;4483303;32;34654;-75
2022/03/29 04:43:46;;;;;;;16.92;9.90;;;;;;;9.98;50.07;99386.34;4472077;32;34561;-74
2022/03/29 04:46:14;;;;;;;16.58;9.43;;;;;;;10.01;49.98;99380.44;4455158;32;32539;-75
2022/03/29 04:48:42;;;;;;;14.95;8.82;;;;;;;9.98;50.03;99377.28;4456459;32;34459;-74
2022/03/29 04:51:10;;;;;;;14.35;9.32;;;;;;;9.99;50.45;99374.34;4470197;32;33339;-73
2022/03/29 04:53:37;;;;;;;15.40;9.48;;;;;;;9.93;50.59;99372.44;4442568;32;34559;-75
2022/03/29 04:56:05;;;;;;;22.62;9.90;;;;;;;9.88;50.80;99364.00;4456132;32;33972;-74
2022/03/29 04:58:36;;;;;;;20.30;9.38;;;;;;;9.95;50.69;99370.34;4470334;32;33756;-75
2022/03/29 05:01:04;;;;;;;16.67;10.10;;;;;;;9.98;51.90;99366.31;4442679;32;32417;-74
2022/03/29 05:03:35;;;;;;;17.33;9.20;;;;;;;10.03;51.37;99364.62;4482348;32;34310;-74
2022/03/29 05:06:03;;;;;;;24.83;11.80;;;;;;;10.10;50.84;99364.62;4471668;32;34071;-75
2022/03/29 05:08:33;;;;;;;22.95;11.63;;;;;;;9.93;50.98;99363.38;4472017;32;33855;-74
2022/03/29 05:11:01;;;;;;;17.83;10.38;;;;;;;10.08;50.61;99364.84;4458519;32;32314;-75
2022/03/29 05:13:29;;;;;;;15.55;9.10;;;;;;;10.09;50.71;99365.69;4471231;32;35142;-74
2022/03/29 05:15:56;;;;;;;17.70;9.90;;;;;;;10.13;50.59;99373.25;4469826;32;32591;-75
2022/03/29 05:18:24;;;;;;;15.57;9.55;;;;;;;10.07;50.84;99368.63;4484472;32;33188;-74
2022/03/29 05:20:52;;;;;;;20.30;10.18;;;;;;;10.07;51.13;99376.84;4485242;32;33432;-75
2022/03/29 05:23:19;;;;;;;17.17;9.68;;;;;;;10.20;50.94;99376.03;4470874;32;34049;-74
2022/03/29 05:25:47;;;;;;;20.88;10.23;;;;;;;10.27;50.95;99374.13;4485031;32;33940;-74
2022/03/29 05:28:15;;;;;;;18.02;10.93;;;;;;;10.33;50.97;99372.41;4445306;32;32272;-74
2022/03/29 05:30:43;;;;;;;19.58;11.32;;;;;;;10.34;51.21;99371.34;4458014;32;34397;-74
2022/03/29 05:33:15;;;;;;;22.17;13.32;;;;;;;10.54;51.06;99375.69;4485371;32;34421;-75
2022/03/29 05:35:43;;;;;;;21.70;12.60;;;;;;;10.58;51.01;99367.87;4471775;32;33873;-74
2022/03/29 05:38:11;;;;;;;21.25;12.68;;;;;;;10.49;51.64;99371.91;4458363;32;34122;-75
2022/03/29 05:40:41;;;;;;;26.58;12.02;;;;;;;10.71;51.20;99369.72;4485270;32;33742;-75
2022/03/29 05:43:11;;;;;;;21.15;11.68;;;;;;;10.97;50.67;99375.09;4471188;32;35662;-75
2022/03/29 05:45:40;;;;;;;26.65;12.57;;;;;;;10.96;50.78;99378.06;4471334;32;33980;-75
2022/03/29 05:50:54;;;;;;;52.38;27.87;;;;;;;11.27;50.29;99380.81;4473295;32;33476;-74
2022/03/29 05:53:23;;;;;;;40.95;22.70;;;;;;;11.49;49.92;99373.91;4458498;32;34320;-75
2022/03/29 05:55:51;;;;;;;47.45;21.25;;;;;;;11.59;50.13;99367.06;4458675;32;34020;-75
2022/03/29 05:58:20;;;;;;;30.35;16.50;;;;;;;11.74;50.14;99373.06;4471364;32;33818;-75
2022/03/29 06:00:53;;;;;;;33.45;15.85;;;;;;;11.88;49.98;99378.25;4471750;32;33949;-75
2022/03/29 06:03:27;;;;;;;32.70;16.60;;;;;;;12.07;49.42;99370.88;4470985;32;33831;-75
2022/03/29 06:05:59;;;;;;;26.87;14.02;;;;;;;12.34;49.64;99370.63;4484619;32;34668;-75
2022/03/29 06:08:30;;;;;;;23.30;13.30;;;;;;;12.57;49.74;99376.25;4471525;32;33351;-75
2022/03/29 06:10:58;;;;;;;24.05;13.52;;;;;;;12.88;48.75;99371.66;4458585;32;33689;-75
2022/03/29 06:13:31;;;;;;;23.23;13.93;;;;;;;13.05;48.67;99361.66;4471562;32;35155;-75
2022/03/29 06:15:59;;;;;;;21.00;11.98;;;;;;;13.31;48.34;99363.22;4485055;32;33682;-75
2022/03/29 06:18:27;;;;;;;22.27;11.88;;;;;;;13.44;46.18;99363.88;4471003;32;33283;-75
2022/03/29 06:20:57;;;;;;;21.87;11.70;;;;;;;13.67;46.44;99359.47;4458006;32;33709;-76
2022/03/29 06:23:25;;;;;;;27.35;13.52;;;;;;;13.80;46.13;99356.50;4470943;32;35216;-75
2022/03/29 06:25:54;;;;;;;26.92;13.75;;;;;;;14.04;45.13;99351.84;4470844;32;34632;-75
2022/03/29 06:28:22;;;;;;;25.98;14.20;;;;;;;14.00;44.84;99357.00;4457950;32;33097;-76
2022/03/29 06:30:52;;;;;;;27.15;14.38;;;;;;;14.29;44.18;99341.41;4470848;32;33768;-75
2022/03/29 06:33:20;;;;;;;24.17;13.05;;;;;;;14.53;44.44;99342.22;4470679;32;35187;-75
2022/03/29 06:35:48;;;;;;;20.00;12.60;;;;;;;14.77;44.19;99330.03;4470758;32;33807;-75
2022/03/29 06:38:21;;;;;;;21.60;12.32;;;;;;;14.99;43.00;99338.44;4470934;32;34552;-75
2022/03/29 06:40:49;;;;;;;23.58;13.82;;;;;;;15.19;43.46;99337.16;4471396;32;34863;-75
2022/03/29 06:43:17;;;;;;;27.13;12.75;;;;;;;15.48;42.99;99338.81;4467177;32;34511;-75
2022/03/29 06:45:47;;;;;;;23.05;13.32;;;;;;;15.60;41.45;99339.59;4468876;32;33844;-75
2022/03/29 06:48:14;;;;;;;21.10;12.30;;;;;;;15.90;41.30;99346.75;4454806;32;34508;-75
2022/03/29 06:50:42;;;;;;;21.70;13.02;;;;;;;16.16;41.49;99337.75;4468763;32;34409;-75
2022/03/29 06:53:10;;;;;;;22.90;12.75;;;;;;;16.43;40.38;99330.37;4441822;32;32993;-75
2022/03/29 06:55:37;;;;;;;26.05;14.60;;;;;;;16.73;40.12;99327.22;4442252;32;34266;-76
2022/03/29 06:58:05;;;;;;;23.65;12.35;;;;;;;16.95;38.56;99327.16;4442073;32;34623;-76
2022/03/29 07:00:34;;;;;;;43.17;23.73;;;;;;;17.02;39.48;99326.97;4442407;32;33884;-75
2022/03/29 07:03:02;;;;;;;26.23;14.70;;;;;;;17.15;37.96;99325.72;4454699;32;35324;-76
2022/03/29 07:05:36;;;;;;;27.37;15.48;;;;;;;17.37;37.86;99335.69;4455138;32;33931;-74
2022/03/29 07:08:06;;;;;;;25.37;16.00;;;;;;;17.43;36.75;99331.88;4442327;32;34116;-76
2022/03/29 07:13:25;;;;;;;20.95;12.65;;;;;;;17.76;36.40;99322.47;4456792;32;34662;-76
2022/03/29 07:15:59;;;;;;;22.80;13.02;;;;;;;17.81;34.67;99318.06;4454775;32;33227;-76
2022/03/29 07:18:32;;;;;;;23.52;12.68;;;;;;;17.96;35.58;99327.34;4471553;32;33703;-76
2022/03/29 07:21:02;;;;;;;21.05;12.20;;;;;;;18.09;35.05;99313.00;4472159;32;33286;-75
2022/03/29 07:23:32;;;;;;;20.48;11.98;;;;;;;18.22;33.42;99320.00;4446704;32;33015;-76
2022/03/29 07:26:05;;;;;;;17.33;11.48;;;;;;;18.54;34.71;99322.69;4457414;32;32537;-76
2022/03/29 07:28:38;;;;;;;21.33;12.63;;;;;;;18.85;34.98;99311.75;4485470;32;34323;-76
2022/03/29 07:31:06;;;;;;;18.42;11.75;;;;;;;19.01;33.48;99321.81;4485555;32;34316;-76
2022/03/29 07:33:34;;;;;;;17.80;12.07;;;;;;;19.37;31.85;99311.59;4486404;32;35388;-76
2022/03/29 07:36:06;;;;;;;22.10;12.70;;;;;;;19.56;32.42;99318.31;4472441;32;34001;-75
2022/03/29 07:38:36;;;;;;;20.37;12.18;;;;;;;19.87;32.77;99308.03;4472392;32;33131;-76
2022/03/29 07:41:06;;;;;;;32.17;18.42;;;;;;;20.19;30.74;99307.69;4472466;32;32418;-76
2022/03/29 07:43:36;;;;;;;23.23;13.10;;;;;;;20.35;31.22;99308.50;4485183;32;34328;-76
2022/03/29 07:46:06;;;;;;;23.05;14.52;;;;;;;20.63;30.77;99304.28;4472185;32;34034;-76
2022/03/29 07:48:36;;;;;;;23.62;12.88;;;;;;;20.78;30.93;99304.22;4472555;32;33714;-76
2022/03/29 07:51:28;;;;;;;23.52;13.52;;;;;;;20.89;30.11;99297.47;4474962;32;34438;-76
2022/03/29 07:54:01;;;;;;;18.02;12.15;;;;;;;20.91;28.87;99298.00;4485580;32;34694;-76
2022/03/29 07:56:29;;;;;;;21.87;14.75;;;;;;;20.56;28.31;99303.75;4459570;32;32553;-77
2022/03/29 07:59:02;;;;;;;38.20;24.48;;;;;;;20.67;30.90;99302.59;4472583;32;32180;-77
2022/03/29 08:01:33;;;;;;;48.95;30.60;;;;;;;20.64;30.66;99304.00;4472385;32;34444;-77
2022/03/29 08:04:07;;;;;;;40.28;25.98;;;;;;;20.81;29.91;99295.25;4485141;32;34320;-77
2022/03/29 08:06:43;;;;;;;21.42;13.40;;;;;;;21.04;30.20;99304.94;4472695;32;35012;-77
2022/03/29 08:09:15;;;;;;;29.80;16.20;;;;;;;21.37;29.18;99298.63;4484908;32;33525;-77
2022/03/29 08:11:45;;;;;;;24.17;12.20;;;;;;;21.57;29.01;99291.22;4472455;32;33892;-77
2022/03/29 08:14:18;;;;;;;27.25;14.43;;;;;;;21.84;27.35;99290.72;4472060;32;35014;-76
2022/03/29 08:16:57;;;;;;;22.50;14.02;;;;;;;22.10;28.98;99282.97;4472556;32;33484;-77
2022/03/29 08:19:31;;;;;;;21.20;13.32;;;;;;;22.13;28.04;99287.94;4484945;32;33898;-79
2022/03/29 08:22:06;;;;;;;23.02;12.57;;;;;;;22.21;26.95;99284.50;4472298;32;34413;-79
2022/03/29 08:24:43;;;;;;;21.42;12.73;;;;;;;22.49;25.79;99280.00;4472089;32;32820;-79
2022/03/29 08:27:11;;;;;;;25.85;15.57;;;;;;;22.53;25.46;99281.09;4472010;32;32403;-78
2022/03/29 08:29:47;;;;;;;34.60;20.52;;;;;;;22.17;24.09;99277.84;4471877;32;33878;-79
2022/03/29 08:32:23;;;;;;;26.73;14.60;;;;;;;21.79;24.56;99277.63;4460155;32;32336;-78
2022/03/29 08:34:59;;;;;;;21.15;13.20;;;;;;;22.29;25.24;99269.87;4472165;32;35315;-78
2022/03/29 08:37:34;;;;;;;20.98;13.07;;;;;;;22.61;24.44;99272.03;4472100;32;32632;-79
2022/03/29 08:40:13;;;;;;;21.80;12.95;;;;;;;22.95;23.75;99267.13;4472011;32;32684;-79
2022/03/29 08:42:46;;;;;;;23.42;14.02;;;;;;;23.11;23.64;99262.16;4484823;32;33588;-79
2022/03/29 08:45:16;;;;;;;22.15;12.45;;;;;;;23.22;23.96;99260.03;4484861;32;33114;-78
2022/03/29 08:47:49;;;;;;;19.67;11.48;;;;;;;23.60;24.09;99261.69;4471907;32;32487;-78
2022/03/29 08:50:17;;;;;;;23.65;13.02;;;;;;;23.22;23.74;99257.25;4472292;32;34534;-79
2022/03/29 08:52:54;;;;;;;24.42;14.63;;;;;;;23.71;23.76;99258.72;4484867;32;33876;-78
2022/03/29 08:55:26;;;;;;;23.73;14.13;;;;;;;24.04;23.59;99259.56;4471436;32;35253;-78
2022/03/29 08:57:56;;;;;;;19.83;11.90;;;;;;;23.92;22.53;99260.03;4471868;32;32474;-78
2022/03/29 09:00:27;;;;;;;22.05;11.90;;;;;;;23.51;22.07;99251.44;4471619;32;33195;-79
2022/03/29 09:03:02;;;;;;;19.37;11.93;;;;;;;23.85;22.34;99251.19;4472613;32;34518;-78
2022/03/29 09:05:38;;;;;;;20.50;13.40;;;;;;;23.78;21.69;99246.00;4471789;32;35405;-78
2022/03/29 09:08:11;;;;;;;26.42;16.92;;;;;;;23.69;22.88;99245.03;4472155;32;33966;-77
2022/03/29 09:10:45;;;;;;;22.92;14.57;;;;;;;24.04;22.56;99249.19;4471939;32;31980;-78
2022/03/29 09:13:19;;;;;;;;;;;;;;;24.48;22.64;99240.19;4472346;32;32319;-78
2022/03/29 09:15:54;;;;;;;34.83;18.60;;;;;;;24.29;22.72;99240.28;4484801;32;34302;-78
2022/03/29 09:18:24;;;;;;;23.77;15.38;;;;;;;23.98;21.65;99248.44;4471463;32;34656;-78
2022/03/29 09:21:08;;;;;;;23.70;15.48;;;;;;;24.61;22.72;99232.94;4484598;32;34431;-77
2022/03/29 09:23:39;;;;;;;21.77;13.18;;;;;;;24.82;22.33;99224.88;4471584;32;32074;-78
2022/03/29 09:26:30;;;;;;;20.50;12.15;;;;;;;24.85;21.99;99225.09;4471705;32;34361;-77
2022/03/29 09:29:03;;;;;;;21.20;11.93;;;;;;;24.72;22.04;99222.28;4471994;32;34724;-78
2022/03/29 09:31:38;;;;;;;22.02;12.73;;;;;;;24.74;22.16;99222.81;4472139;32;32023;-78
2022/03/29 09:34:18;;;;;;;19.10;12.10;;;;;;;24.89;22.98;99226.13;4471961;32;33395;-78
2022/03/29 09:36:56;;;;;;;19.98;12.20;;;;;;;24.94;22.08;99220.38;4458799;32;33023;-78
2022/03/29 09:39:40;;;;;;;20.67;12.45;;;;;;;24.93;22.42;99220.72;4471509;32;34063;-77
2022/03/29 09:42:17;;;;;;;19.52;12.63;;;;;;;24.69;21.79;99220.97;4458832;32;33108;-77
2022/03/29 09:45:09;;;;;;;21.08;11.23;;;;;;;24.48;22.37;99216.94;4485321;32;33695;-77
2022/03/29 09:47:39;;;;;;;21.80;10.73;;;;;;;24.65;21.06;99205.91;4471384;32;33010;-77
2022/03/29 09:50:13;;;;;;;19.60;10.93;;;;;;;24.25;21.89;99210.34;4484226;32;34602;-77
2022/03/29 09:52:50;;;;;;;18.12;11.45;;;;;;;23.96;23.02;99203.06;4484459;32;33480;-77
2022/03/29 09:55:24;;;;;;;18.87;11.18;;;;;;;23.51;23.22;99207.47;4484342;32;34761;-77
2022/03/29 09:57:58;;;;;;;24.55;12.88;;;;;;;23.76;21.70;99209.03;4471315;32;34790;-77
2022/03/29 10:00:42;;;;;;;21.33;11.35;;;;;;;23.66;23.10;99198.00;4471513;32;32806;-77
2022/03/29 10:03:11;;;;;;;20.85;10.93;;;;;;;23.53;22.93;99199.63;4471748;32;33914;-77
2022/03/29 10:05:48;;;;;;;22.55;11.00;;;;;;;23.59;22.32;99191.97;4471181;32;32133;-77
2022/03/29 10:11:27;;;;;;;20.48;10.88;;;;;;;23.28;22.68;99192.47;4473203;32;32551;-77
2022/03/29 10:14:02;;;;;;;21.25;10.88;;;;;;;23.85;22.30;99183.94;4471263;32;33550;-77
2022/03/29 10:16:31;;;;;;;21.42;11.10;;;;;;;23.82;22.84;99170.53;4485274;32;33658;-77
2022/03/29 10:19:07;;;;;;;18.90;11.48;;;;;;;24.16;21.68;99173.78;4484002;32;35142;-77
2022/03/29 10:21:35;;;;;;;24.37;10.95;;;;;;;24.28;22.71;99167.69;4470874;32;33988;-77
2022/03/29 10:24:08;;;;;;;19.87;11.48;;;;;;;24.45;21.40;99159.47;4471402;32;34231;-77
2022/03/29 10:26:46;;;;;;;18.73;11.18;;;;;;;24.45;20.45;99161.44;4471248;32;33280;-77
2022/03/29 10:29:17;;;;;;;19.00;11.47;;;;;;;24.82;20.23;99149.09;4470815;32;34464;-78
2022/03/29 10:31:54;;;;;;;19.42;11.23;;;;;;;25.15;20.05;99141.31;4471122;32;34693;-77
2022/03/29 10:34:24;;;;;;;24.23;12.25;;;;;;;25.36;18.64;99144.44;4458100;32;32092;-77
2022/03/29 10:37:07;;;;;;;19.05;11.75;;;;;;;25.18;17.40;99138.72;4471046;32;32461;-77
2022/03/29 10:39:47;;;;;;;21.08;11.50;;;;;;;25.14;17.43;99140.50;4470746;32;33937;-77
2022/03/29 10:42:44;;;;;;;19.62;10.82;;;;;;;25.46;19.00;99133.75;4483688;32;34048;-77
2022/03/29 10:45:25;;;;;;;60.97;38.97;;;;;;;25.22;19.10;99130.47;4484888;32;33708;-77
2022/03/29 10:47:54;;;;;;;19.42;11.82;;;;;;;25.56;20.21;99115.81;4470787;32;32206;-77
2022/03/29 10:50:53;;;;;;;25.42;11.18;;;;;;;25.73;18.68;99124.37;4483895;32;34684;-77
2022/03/29 10:53:34;;;;;;;18.60;11.88;;;;;;;25.82;17.55;99113.16;4455133;32;32598;-77
2022/03/29 10:56:12;;;;;;;25.65;14.50;;;;;;;25.92;18.09;99107.28;4485996;32;33659;-77
2022/03/29 10:59:01;;;;;;;25.10;15.32;;;;;;;25.49;19.48;99113.44;4485576;32;32840;-77
2022/03/29 11:01:37;;;;;;;21.98;12.40;;;;;;;26.06;18.04;99102.34;4485464;32;34345;-77
2022/03/29 11:04:26;;;;;;;22.35;12.00;;;;;;;26.14;18.28;99100.72;4461073;32;33461;-77
2022/03/29 11:07:07;;;;;;;20.92;12.43;;;;;;;26.46;18.35;99086.25;4485854;32;33314;-77
2022/03/29 11:09:38;;;;;;;20.15;11.23;;;;;;;26.58;17.45;99078.00;4486645;32;33854;-77
2022/03/29 11:12:57;;;;;;;19.75;11.10;;;;;;;26.70;17.61;99077.31;4472524;32;32977;-77
2022/03/29 11:15:32;;;;;;;19.70;13.02;;;;;;;26.32;18.31;99068.69;4486814;32;34014;-77
2022/03/29 11:18:22;;;;;;;28.92;17.70;;;;;;;26.44;19.33;99063.25;4485762;32;34165;-77
2022/03/29 11:21:02;;;;;;;24.27;14.45;;;;;;;26.50;18.10;99055.47;4472478;32;33648;-78
2022/03/29 11:23:41;;;;;;;22.42;12.37;;;;;;;26.76;16.66;99050.66;4473626;32;34424;-77
2022/03/29 11:26:18;;;;;;;18.70;12.90;;;;;;;26.26;17.63;99045.47;4459563;32;33404;-77
2022/03/29 11:28:53;;;;;;;18.67;12.37;;;;;;;26.22;17.73;99038.03;4472376;32;33902;-77
2022/03/29 11:31:32;;;;;;;21.33;15.15;;;;;;;26.36;17.59;99035.09;4485457;32;33606;-77
2022/03/29 11:34:03;;;;;;;21.12;13.13;;;;;;;26.41;17.19;99032.94;4485454;32;34614;-77
2022/03/29 11:36:40;;;;;;;22.73;12.68;;;;;;;26.36;18.65;99024.66;4485299;32;34766;-77
2022/03/29 11:39:24;;;;;;;19.65;11.82;;;;;;;26.53;17.72;99021.03;4485380;32;33527;-77
2022/03/29 11:41:55;;;;;;;19.92;12.25;;;;;;;26.68;16.95;99028.97;4472380;32;34004;-77
2022/03/29 11:44:32;;;;;;;23.17;12.63;;;;;;;26.13;15.30;99023.94;4459548;32;33857;-77
2022/03/29 11:47:09;;;;;;;19.98;12.98;;;;;;;25.90;15.48;99013.97;4485320;32;34039;-77
2022/03/29 11:49:44;;;;;;;20.67;12.37;;;;;;;25.57;15.54;99014.31;4459778;32;32110;-78
2022/03/29 11:52:23;;;;;;;20.67;12.37;;;;;;;25.36;15.92;99013.22;4485346;32;33739;-78